Exeter, Missouri
Current Conditions -  °F | °C
As of 10:15 AM on Sunday 25 Jan 2015 (Local Time) from KHFJ Reporting Station
Overcast Overcast  
Wind Chill: 31°   Ceiling: 2100
Heat Index: 41°   Visibility: 10mi
Dew Point: 36°   Wind: 23mph
Humidity: 81%   Direction: 300°WNW
Pressure: 29.75"   Gusts: 37mph
Location:  36.67°N, 93.94°W
Report Text: KHFJ 251615Z AUTO 30020G32KT 10SM BKN021 BKN026 OVC031 05/02 A2975 RMK AO2
Loading
Personal Weather Stations






























Interactive Weather Map New forecast layout! Learn more

10-Day Weather Forecast

Advertisements
Track Severe Weather on mobile